KMIB

Minot AFB Airport

Minot, North Dakota, USA
METAR KMIB 201556Z AUTO 05003KT 10SM CLR 18/09 A3025 RMK AO2 SLP250 T01840089 $
Observed Flight Rules
Aug-20 @ 15:56 UTC (27 minutes ago) Visual Flight Rules
Wind Visibility Clouds
50° at 3 knots 10 miles
  • Clear skies
Temperatures Readings
Current 18°C / 64°F
Dewpoint 9°C / 48°F
Humidity 56%
Altimeter 30.25" Hg
Pressure 1025 hPa
Elevation 508
METAR KMIB 201556Z AUTO 05003KT 10SM CLR 18/09 A3025 RMK AO2 SLP250 T01840089 $
Observed Flight Rules
Aug-20 @ 15:56 UTC
(27 minutes ago)
VFR
Wind Visibility
50° at 3 knots 10 miles
Clouds
  • Clear skies
Temperature Dewpoint
18°C / 64°F 9°C / 48°F
Humidity Altimeter Pressure
56% 30.25" Hg 1025 hPa